Time;durP1;ratioP1;P1;durP2;ratioP2;P2;SDS_P1;SDS_P2;PMS_P1;PMS_P2;Temp;Humidity;BMP_temperature;BMP_pressure;BME280_temperature;BME280_humidity;BME280_pressure;Samples;Min_cycle;Max_cycle;Signal;HPM_P1;HPM_P2
2023/03/22 00:01:13;;;;;;;17.85;2.85;;;8.90;99.90;;;;;;5063343;28;20047;-81
2023/03/22 00:03:39;;;;;;;13.45;2.28;;;8.90;99.90;;;;;;5113189;28;20470;-82
2023/03/22 00:06:06;;;;;;;11.38;2.50;;;8.90;99.90;;;;;;5096042;28;20039;-82
2023/03/22 00:08:33;;;;;;;15.52;2.22;;;8.90;99.90;;;;;;5113793;28;20049;-82
2023/03/22 00:10:58;;;;;;;13.00;2.50;;;8.90;99.90;;;;;;5079501;28;20467;-81
2023/03/22 00:13:24;;;;;;;12.95;2.72;;;8.90;99.90;;;;;;5079125;28;20050;-81
2023/03/22 00:15:50;;;;;;;14.05;2.65;;;8.90;99.90;;;;;;5062490;28;20433;-82
2023/03/22 00:18:16;;;;;;;17.95;2.75;;;8.90;99.90;;;;;;5095744;28;20422;-81
2023/03/22 00:20:53;;;;;;;12.20;2.70;;;9.00;99.90;;;;;;5096052;28;20088;-79
2023/03/22 00:23:19;;;;;;;14.93;2.40;;;9.00;99.90;;;;;;5096696;28;20130;-78
2023/03/22 00:25:46;;;;;;;8.73;2.35;;;9.10;99.90;;;;;;5096135;28;20086;-79
2023/03/22 00:28:13;;;;;;;10.52;2.90;;;9.00;99.90;;;;;;5095391;28;20040;-79
2023/03/22 00:30:39;;;;;;;11.25;2.03;;;9.00;99.90;;;;;;5078850;28;20078;-78
2023/03/22 00:33:06;;;;;;;14.98;2.53;;;9.00;99.90;;;;;;5078818;28;20071;-79
2023/03/22 00:35:32;;;;;;;11.63;2.08;;;9.00;99.90;;;;;;5112228;28;20047;-80
2023/03/22 00:38:05;;;;;;;8.85;2.03;;;9.00;99.90;;;;;;5112540;28;20083;-79
2023/03/22 00:40:32;;;;;;;10.50;2.10;;;8.90;99.90;;;;;;5063864;28;20043;-79
2023/03/22 00:42:58;;;;;;;11.65;2.90;;;8.90;99.90;;;;;;5095324;28;20043;-79
2023/03/22 00:45:23;;;;;;;9.55;1.95;;;8.90;99.90;;;;;;5112427;28;20043;-79
2023/03/22 00:47:49;;;;;;;11.43;1.70;;;8.90;99.90;;;;;;5113085;28;20039;-79
2023/03/22 00:50:15;;;;;;;11.77;1.75;;;8.90;99.90;;;;;;5112473;28;20118;-79
2023/03/22 00:52:41;;;;;;;11.85;2.22;;;8.90;99.90;;;;;;5079232;28;20601;-79
2023/03/22 00:55:07;;;;;;;12.50;2.25;;;8.90;99.90;;;;;;5078603;28;20073;-79
2023/03/22 00:57:33;;;;;;;16.42;2.47;;;9.00;99.90;;;;;;5095625;28;20043;-79
2023/03/22 00:59:58;;;;;;;9.85;2.05;;;9.00;99.90;;;;;;5079372;28;20096;-78
2023/03/22 01:02:28;;;;;;;14.40;2.30;;;9.00;99.90;;;;;;5095601;28;20109;-79
2023/03/22 01:04:54;;;;;;;12.43;2.42;;;8.90;99.90;;;;;;5062597;28;20052;-79
2023/03/22 01:07:22;;;;;;;12.52;2.60;;;8.90;99.90;;;;;;5112563;28;20050;-79
2023/03/22 01:09:50;;;;;;;12.60;2.00;;;8.90;99.90;;;;;;5112191;28;20123;-79
2023/03/22 01:12:16;;;;;;;9.25;1.88;;;8.90;99.90;;;;;;5129348;28;20043;-81
2023/03/22 01:14:42;;;;;;;8.98;1.63;;;8.90;99.90;;;;;;5111801;28;20479;-82
2023/03/22 01:17:08;;;;;;;8.32;1.63;;;8.80;99.90;;;;;;5078316;28;20047;-81
2023/03/22 01:19:35;;;;;;;9.50;1.88;;;8.80;99.90;;;;;;5098839;28;20084;-81
2023/03/22 01:22:02;;;;;;;6.88;1.60;;;8.80;99.90;;;;;;5065906;28;20054;-82
2023/03/22 01:24:28;;;;;;;8.98;1.90;;;8.80;99.90;;;;;;5116360;28;20048;-81
2023/03/22 01:26:54;;;;;;;7.93;1.52;;;8.80;99.90;;;;;;5116099;28;20051;-81
2023/03/22 01:29:20;;;;;;;9.43;1.90;;;8.80;99.90;;;;;;5098760;28;20040;-81
2023/03/22 01:31:46;;;;;;;7.70;1.75;;;8.80;99.90;;;;;;5116194;27;20054;-82
2023/03/22 01:34:11;;;;;;;8.05;1.98;;;8.80;99.90;;;;;;5065335;28;20502;-83
2023/03/22 01:36:37;;;;;;;7.60;1.67;;;8.80;99.90;;;;;;5098990;28;20488;-83
2023/03/22 01:39:03;;;;;;;8.07;1.90;;;8.80;99.90;;;;;;5115354;28;20514;-82
2023/03/22 01:41:33;;;;;;;7.65;2.00;;;8.80;99.90;;;;;;5098938;28;20048;-81
2023/03/22 01:44:07;;;;;;;9.85;1.90;;;8.80;99.90;;;;;;5082047;28;20083;-82
2023/03/22 01:46:33;;;;;;;12.68;2.08;;;8.30;99.90;;;;;;5098694;28;20070;-82
2023/03/22 01:49:01;;;;;;;12.43;2.08;;;8.80;99.90;;;;;;5081558;28;20067;-83
2023/03/22 01:51:27;;;;;;;10.18;1.77;;;8.80;99.90;;;;;;5081716;28;20044;-82
2023/03/22 01:54:29;;;;;;;10.65;1.77;;;8.80;99.90;;;;;;5098669;28;20134;-81
2023/03/22 01:56:55;;;;;;;10.70;1.92;;;8.80;99.90;;;;;;5113091;28;20402;-81
2023/03/22 01:59:21;;;;;;;6.80;1.33;;;8.80;99.90;;;;;;5115662;28;20054;-81
2023/03/22 02:01:48;;;;;;;5.45;1.40;;;8.80;99.90;;;;;;5064534;28;20051;-82
2023/03/22 02:04:22;;;;;;;6.40;1.45;;;8.90;99.90;;;;;;5064756;28;20051;-81
2023/03/22 02:06:52;;;;;;;5.63;1.50;;;8.90;99.90;;;;;;5115943;28;20142;-82
2023/03/22 02:09:20;;;;;;;8.13;1.40;;;8.90;99.90;;;;;;5098576;28;20050;-79
2023/03/22 02:12:06;;;;;;;9.07;1.35;;;9.00;99.90;;;;;;5082009;28;20448;-79
2023/03/22 02:14:43;;;;;;;6.63;1.65;;;9.00;99.90;;;;;;5050922;28;20052;-79
2023/03/22 02:17:26;;;;;;;8.48;1.80;;;9.00;99.90;;;;;;5116117;28;20055;-79
2023/03/22 02:20:20;;;;;;;8.73;1.50;;;9.10;99.90;;;;;;5098691;28;20140;-79
2023/03/22 02:23:12;;;;;;;6.93;1.58;;;9.10;99.90;;;;;;5115107;28;20063;-79
2023/03/22 02:26:02;;;;;;;7.15;1.50;;;9.10;99.90;;;;;;5132806;27;20119;-80
2023/03/22 02:28:39;;;;;;;11.23;1.83;;;9.10;99.90;;;;;;5115127;28;20044;-79
2023/03/22 02:31:27;;;;;;;5.38;1.20;;;9.10;99.90;;;;;;5080759;28;20059;-79
2023/03/22 02:34:23;;;;;;;7.60;1.73;;;9.10;99.90;;;;;;5115196;28;20111;-78
2023/03/22 02:37:24;;;;;;;5.35;1.10;;;9.10;99.90;;;;;;5097801;28;20126;-80
2023/03/22 02:39:58;;;;;;;6.57;1.50;;;9.10;99.90;;;;;;5027423;28;20130;-80
2023/03/22 02:42:48;;;;;;;6.60;1.40;;;9.10;99.90;;;;;;5097286;28;20453;-80
2023/03/22 02:45:17;;;;;;;5.97;1.60;;;9.20;99.90;;;;;;5131760;27;20341;-79
2023/03/22 02:47:49;;;;;;;7.63;1.45;;;9.10;99.90;;;;;;5114156;28;20043;-79
2023/03/22 02:50:24;;;;;;;6.90;1.23;;;9.20;99.90;;;;;;5114270;28;20533;-80
2023/03/22 02:53:24;;;;;;;8.90;1.60;;;9.20;99.90;;;;;;5114576;28;20043;-79
2023/03/22 02:56:11;;;;;;;6.60;1.55;;;9.20;99.90;;;;;;5096580;28;20051;-79
2023/03/22 02:58:44;;;;;;;8.35;1.52;;;9.20;99.90;;;;;;5097873;28;20044;-79
2023/03/22 03:01:18;;;;;;;7.43;1.65;;;9.20;99.90;;;;;;5097725;28;20044;-80
2023/03/22 03:03:47;;;;;;;6.97;1.40;;;9.20;99.90;;;;;;5131279;27;20078;-79
2023/03/22 03:06:18;;;;;;;5.13;1.98;;;9.20;99.90;;;;;;5097336;28;20051;-80
2023/03/22 03:08:49;;;;;;;8.85;1.88;;;9.10;99.90;;;;;;5097135;28;20119;-80
2023/03/22 03:11:15;;;;;;;10.18;2.25;;;9.10;99.90;;;;;;5114193;28;20048;-80
2023/03/22 03:13:41;;;;;;;8.30;1.90;;;9.10;99.90;;;;;;5097419;28;20130;-78
2023/03/22 03:16:12;;;;;;;9.02;2.13;;;9.10;99.90;;;;;;5063440;28;20055;-80
2023/03/22 03:18:51;;;;;;;7.05;2.33;;;9.10;99.90;;;;;;5113923;28;20047;-78
2023/03/22 03:21:45;;;;;;;11.40;2.10;;;10.00;99.90;;;;;;5080546;28;20055;-79
2023/03/22 03:24:30;;;;;;;9.52;2.60;;;8.60;99.90;;;;;;5113821;28;20053;-79
2023/03/22 03:27:21;;;;;;;11.20;2.40;;;9.10;99.90;;;;;;5113529;28;20054;-78
2023/03/22 03:30:15;;;;;;;9.63;2.53;;;9.10;99.90;;;;;;5113551;28;20120;-79
2023/03/22 03:32:51;;;;;;;10.18;2.95;;;9.00;99.90;;;;;;5080269;28;20048;-78
2023/03/22 03:35:31;;;;;;;7.47;2.35;;;9.00;99.90;;;;;;5096905;28;20563;-79
2023/03/22 03:38:07;;;;;;;7.93;2.03;;;9.00;99.90;;;;;;5080378;28;20043;-79
2023/03/22 03:40:38;;;;;;;7.25;2.00;;;9.00;99.90;;;;;;5113341;28;20471;-78
2023/03/22 03:43:06;;;;;;;14.43;2.63;;;9.00;99.90;;;;;;5113560;28;20101;-79
2023/03/22 03:45:33;;;;;;;8.95;2.28;;;9.00;99.90;;;;;;5096384;28;20048;-79
2023/03/22 03:48:06;;;;;;;8.70;2.40;;;9.00;99.90;;;;;;5113181;28;20050;-79
2023/03/22 03:50:33;;;;;;;10.10;2.75;;;9.00;99.90;;;;;;5113176;28;20044;-78
2023/03/22 03:52:59;;;;;;;10.38;2.63;;;9.00;99.90;;;;;;5113079;28;20135;-81
2023/03/22 03:55:26;;;;;;;12.32;3.05;;;9.00;99.90;;;;;;5112902;28;20047;-82
2023/03/22 03:57:52;;;;;;;11.18;2.35;;;9.00;99.90;;;;;;5063109;28;20043;-79
2023/03/22 04:00:18;;;;;;;11.32;2.88;;;9.00;99.90;;;;;;5096077;28;20391;-78
2023/03/22 04:02:44;;;;;;;11.93;2.78;;;9.00;99.90;;;;;;5096043;28;20073;-79
2023/03/22 04:05:12;;;;;;;9.23;2.45;;;9.00;99.90;;;;;;5062184;28;20044;-79
2023/03/22 04:07:38;;;;;;;9.65;2.88;;;8.90;99.90;;;;;;5095890;28;20087;-78
2023/03/22 04:10:05;;;;;;;8.85;2.83;;;8.90;99.90;;;;;;5078889;28;20044;-79
2023/03/22 04:12:31;;;;;;;7.93;2.40;;;8.90;99.90;;;;;;5112588;28;20047;-79
2023/03/22 04:14:57;;;;;;;14.18;3.03;;;8.90;99.90;;;;;;5113383;28;20051;-80
2023/03/22 04:17:23;;;;;;;10.38;3.08;;;8.90;99.90;;;;;;5079674;28;20352;-81
2023/03/22 04:19:55;;;;;;;10.75;3.20;;;8.90;99.90;;;;;;5112817;28;20044;-79
2023/03/22 04:22:21;;;;;;;11.70;3.78;;;8.90;99.90;;;;;;5097223;28;20459;-79
2023/03/22 04:24:48;;;;;;;8.18;2.92;;;8.90;99.90;;;;;;5096362;28;20052;-79
2023/03/22 04:27:19;;;;;;;9.05;3.00;;;8.90;99.90;;;;;;5062664;28;20047;-81
2023/03/22 04:29:47;;;;;;;6.80;2.88;;;8.90;99.90;;;;;;5095485;28;20063;-81
2023/03/22 04:32:17;;;;;;;13.90;3.65;;;8.80;99.90;;;;;;5095681;28;20090;-81
2023/03/22 04:34:46;;;;;;;10.93;3.70;;;8.80;99.90;;;;;;5095489;28;20452;-82
2023/03/22 04:37:13;;;;;;;10.18;3.50;;;8.80;99.90;;;;;;5129682;27;20043;-80
2023/03/22 04:39:39;;;;;;;13.38;3.63;;;8.80;99.90;;;;;;5112349;28;20136;-80
2023/03/22 04:42:05;;;;;;;11.00;3.88;;;8.80;99.90;;;;;;5112477;28;20051;-81
2023/03/22 04:44:30;;;;;;;8.65;3.38;;;8.80;99.90;;;;;;5130227;27;20051;-80
2023/03/22 04:46:56;;;;;;;15.05;3.67;;;8.80;99.90;;;;;;5129646;27;20556;-81
2023/03/22 04:49:22;;;;;;;13.18;3.45;;;8.80;99.90;;;;;;5061804;28;20126;-80
2023/03/22 04:51:48;;;;;;;11.48;3.60;;;8.80;99.90;;;;;;5078316;28;20043;-80
2023/03/22 04:54:14;;;;;;;9.43;3.47;;;8.80;99.90;;;;;;5129368;28;20042;-79
2023/03/22 04:56:39;;;;;;;9.55;3.85;;;8.80;99.90;;;;;;5061787;28;20047;-79
2023/03/22 04:59:05;;;;;;;11.40;3.88;;;8.80;99.90;;;;;;5112202;28;20044;-79
2023/03/22 05:01:31;;;;;;;9.82;3.72;;;8.80;99.90;;;;;;5078697;28;20047;-79
2023/03/22 05:03:57;;;;;;;12.38;4.40;;;8.80;99.90;;;;;;5094991;28;20047;-79
2023/03/22 05:06:23;;;;;;;9.30;4.30;;;8.80;99.90;;;;;;5078621;28;20048;-79
2023/03/22 05:08:48;;;;;;;11.68;4.68;;;8.80;99.90;;;;;;5095023;28;20050;-78
2023/03/22 05:11:16;;;;;;;19.35;4.75;;;8.80;99.90;;;;;;5078591;28;20047;-79
2023/03/22 05:13:42;;;;;;;12.13;5.00;;;8.90;99.90;;;;;;5078545;28;20044;-78
2023/03/22 05:16:09;;;;;;;8.57;4.50;;;8.90;99.90;;;;;;5095305;28;20048;-79
2023/03/22 05:18:41;;;;;;;10.48;4.70;;;8.90;99.90;;;;;;5111944;28;20506;-79
2023/03/22 05:21:14;;;;;;;12.55;4.80;;;8.90;99.90;;;;;;5095029;28;20047;-78
2023/03/22 05:23:42;;;;;;;13.43;5.75;;;8.90;99.90;;;;;;5112107;28;20044;-78
2023/03/22 05:26:09;;;;;;;10.43;5.40;;;8.90;99.90;;;;;;5095160;28;20512;-78
2023/03/22 05:28:36;;;;;;;12.15;6.10;;;8.90;99.90;;;;;;5111875;28;20058;-78
2023/03/22 05:31:02;;;;;;;12.70;5.60;;;8.90;99.90;;;;;;5108241;28;20060;-79
2023/03/22 05:33:28;;;;;;;7.85;5.03;;;8.90;99.90;;;;;;5108554;28;20056;-78
2023/03/22 05:35:55;;;;;;;15.18;5.80;;;8.90;99.90;;;;;;5091360;28;20548;-80
2023/03/22 05:38:23;;;;;;;13.45;5.63;;;8.90;99.90;;;;;;5109185;28;20044;-78
2023/03/22 05:40:49;;;;;;;11.38;5.60;;;8.90;99.90;;;;;;5092194;28;20097;-78
2023/03/22 05:43:15;;;;;;;11.68;5.78;;;8.90;99.90;;;;;;5091821;28;20044;-78
2023/03/22 05:45:41;;;;;;;12.70;5.53;;;8.80;99.90;;;;;;5108370;28;20047;-79
2023/03/22 05:48:07;;;;;;;14.55;6.60;;;8.90;99.90;;;;;;5108397;28;20047;-79
2023/03/22 05:50:34;;;;;;;10.68;5.75;;;8.90;99.90;;;;;;5109083;28;20452;-81
2023/03/22 05:53:00;;;;;;;15.85;6.68;;;8.90;99.90;;;;;;5109037;28;20040;-81
2023/03/22 05:55:26;;;;;;;13.15;7.00;;;8.90;99.90;;;;;;5109829;28;20557;-81
2023/03/22 05:57:53;;;;;;;12.90;5.95;;;8.90;99.90;;;;;;5092212;28;20476;-82
2023/03/22 06:00:20;;;;;;;13.00;6.65;;;8.90;99.90;;;;;;5093770;28;20043;-83
2023/03/22 06:02:48;;;;;;;14.00;7.15;;;8.90;99.90;;;;;;5109809;28;20063;-83
2023/03/22 06:05:16;;;;;;;12.80;7.20;;;8.90;99.90;;;;;;5077649;28;20074;-83
2023/03/22 06:07:42;;;;;;;13.15;7.80;;;8.90;99.90;;;;;;5096014;28;20044;-83
2023/03/22 06:10:13;;;;;;;14.93;7.65;;;8.90;99.90;;;;;;5113305;28;20123;-83
2023/03/22 06:12:39;;;;;;;13.13;7.28;;;8.90;99.90;;;;;;5113169;28;20157;-83
2023/03/22 06:15:05;;;;;;;15.85;8.23;;;8.90;99.90;;;;;;5095669;28;20503;-83
2023/03/22 06:17:31;;;;;;;13.70;7.93;;;8.90;99.90;;;;;;5112159;28;20058;-82
2023/03/22 06:19:57;;;;;;;16.25;7.93;;;;;;;;;;5095669;28;20087;-83
2023/03/22 06:22:23;;;;;;;13.65;7.50;;;9.00;99.90;;;;;;5079494;28;20051;-84
2023/03/22 06:24:49;;;;;;;16.35;8.65;;;9.00;99.90;;;;;;5096124;28;20067;-83
2023/03/22 06:27:16;;;;;;;16.95;8.18;;;9.00;99.90;;;;;;5112133;28;20553;-82
2023/03/22 06:29:43;;;;;;;17.67;8.20;;;9.00;99.90;;;;;;5114606;28;20377;-83
2023/03/22 06:32:10;;;;;;;12.57;8.27;;;9.20;99.90;;;;;;5082377;28;20087;-84
2023/03/22 06:34:35;;;;;;;17.08;8.52;;;9.00;99.90;;;;;;5099218;28;20035;-83
2023/03/22 06:37:01;;;;;;;15.70;8.27;;;9.10;99.90;;;;;;5065798;28;20049;-83
2023/03/22 06:39:27;;;;;;;17.67;8.60;;;9.10;99.90;;;;;;5099290;28;20079;-83
2023/03/22 06:41:53;;;;;;;15.25;8.75;;;9.10;99.90;;;;;;5098026;28;20051;-83
2023/03/22 06:44:21;;;;;;;16.33;9.00;;;9.10;99.90;;;;;;5063862;28;20484;-80
2023/03/22 06:46:47;;;;;;;15.82;9.10;;;9.10;99.90;;;;;;5082018;28;20048;-80
2023/03/22 06:49:12;;;;;;;15.23;8.85;;;9.20;99.90;;;;;;5064247;28;20423;-80
2023/03/22 06:51:38;;;;;;;16.95;9.27;;;9.10;99.90;;;;;;5098410;28;20467;-81
2023/03/22 06:54:07;;;;;;;18.85;9.85;;;9.20;99.90;;;;;;5098619;28;20050;-84
2023/03/22 06:56:32;;;;;;;23.30;9.05;;;9.20;99.90;;;;;;5115644;28;20399;-80
2023/03/22 06:58:58;;;;;;;18.90;8.93;;;9.20;99.90;;;;;;5065060;28;20044;-80
2023/03/22 07:01:24;;;;;;;15.52;8.93;;;9.20;99.90;;;;;;5132370;27;20054;-81
2023/03/22 07:03:50;;;;;;;18.17;10.13;;;9.20;99.90;;;;;;5115645;28;20077;-81
2023/03/22 07:06:16;;;;;;;15.57;8.63;;;9.20;99.90;;;;;;5132466;27;20044;-82
2023/03/22 07:08:42;;;;;;;16.20;9.02;;;9.30;99.90;;;;;;5097978;28;20091;-82
2023/03/22 07:11:07;;;;;;;15.85;9.07;;;9.30;99.90;;;;;;5064598;28;20094;-81
2023/03/22 07:13:33;;;;;;;16.55;9.20;;;9.30;99.90;;;;;;5115500;28;20172;-81
2023/03/22 07:16:00;;;;;;;22.67;9.13;;;9.30;99.90;;;;;;5114460;28;20043;-81
2023/03/22 07:18:28;;;;;;;16.13;8.32;;;9.40;99.90;;;;;;5114703;28;20059;-80
2023/03/22 07:20:54;;;;;;;16.58;8.32;;;9.40;99.90;;;;;;5114602;28;20051;-81
2023/03/22 07:23:20;;;;;;;13.70;9.05;;;9.40;99.90;;;;;;5097769;28;20050;-81
2023/03/22 07:25:47;;;;;;;17.48;8.07;;;9.40;99.90;;;;;;5064368;28;20394;-85
2023/03/22 07:28:14;;;;;;;15.38;8.20;;;9.50;99.90;;;;;;5081125;28;20047;-80
2023/03/22 07:30:42;;;;;;;17.73;8.30;;;9.50;99.90;;;;;;5114351;28;20051;-81
2023/03/22 07:33:09;;;;;;;14.63;7.85;;;9.60;99.90;;;;;;5080854;28;20054;-82
2023/03/22 07:35:38;;;;;;;16.50;7.82;;;9.60;99.90;;;;;;5097894;28;20082;-81
2023/03/22 07:38:05;;;;;;;16.40;7.75;;;9.60;99.90;;;;;;5114872;28;20047;-81
2023/03/22 07:40:31;;;;;;;14.73;7.60;;;9.70;99.90;;;;;;5115005;28;20043;-82
2023/03/22 07:42:59;;;;;;;12.93;7.38;;;9.80;99.90;;;;;;5097680;28;20502;-81
2023/03/22 07:45:25;;;;;;;11.88;7.00;;;9.80;99.90;;;;;;5114365;28;20090;-81
2023/03/22 07:47:51;;;;;;;17.23;7.38;;;9.90;99.90;;;;;;5098141;28;20047;-81
2023/03/22 07:50:17;;;;;;;17.15;6.72;;;9.90;99.90;;;;;;5063787;28;20047;-81
2023/03/22 07:52:44;;;;;;;12.95;6.25;;;9.90;99.90;;;;;;5097429;28;20056;-81
2023/03/22 07:55:11;;;;;;;14.18;6.43;;;10.00;99.90;;;;;;5064306;28;20044;-81
2023/03/22 07:57:37;;;;;;;11.98;6.35;;;10.00;99.90;;;;;;5097617;28;20399;-81
2023/03/22 08:00:07;;;;;;;9.30;5.30;;;10.00;99.90;;;;;;5114524;28;20368;-82
2023/03/22 08:02:32;;;;;;;12.77;6.00;;;10.00;99.90;;;;;;5114316;28;20055;-82
2023/03/22 08:04:58;;;;;;;12.95;5.95;;;10.10;99.90;;;;;;5080427;28;20129;-81
2023/03/22 08:07:24;;;;;;;12.57;5.75;;;10.00;99.90;;;;;;5114389;28;20108;-82
2023/03/22 08:09:51;;;;;;;9.32;5.22;;;10.00;99.90;;;;;;5097018;28;20112;-81
2023/03/22 08:12:17;;;;;;;14.65;5.30;;;10.10;99.90;;;;;;5114373;28;20046;-81
2023/03/22 08:14:49;;;;;;;12.75;5.05;;;10.10;99.90;;;;;;5081178;28;20059;-81
2023/03/22 08:17:15;;;;;;;8.45;4.38;;;10.10;99.90;;;;;;5098127;28;20122;-81
2023/03/22 08:19:44;;;;;;;11.30;4.30;;;10.00;99.90;;;;;;5114451;28;20082;-82
2023/03/22 08:22:10;;;;;;;10.30;4.80;;;10.10;99.90;;;;;;5065099;28;20113;-81
2023/03/22 08:24:39;;;;;;;11.93;5.00;;;10.00;99.90;;;;;;5098616;28;20050;-80
2023/03/22 08:27:04;;;;;;;10.20;4.25;;;10.00;99.90;;;;;;5114210;28;20048;-82
2023/03/22 08:29:30;;;;;;;12.30;4.38;;;10.00;99.90;;;;;;5097602;28;20176;-81
2023/03/22 08:32:00;;;;;;;8.95;4.03;;;9.90;99.90;;;;;;5114561;28;20083;-81
2023/03/22 08:34:30;;;;;;;12.63;4.65;;;9.90;99.90;;;;;;5083320;28;20126;-82
2023/03/22 08:36:59;;;;;;;10.18;3.83;;;9.90;99.90;;;;;;5097921;28;20125;-82
2023/03/22 08:39:25;;;;;;;12.20;4.22;;;9.80;99.90;;;;;;5098253;28;20054;-81
2023/03/22 08:41:50;;;;;;;15.00;4.20;;;9.80;99.90;;;;;;5081190;28;20040;-81
2023/03/22 08:44:19;;;;;;;11.73;4.07;;;9.80;99.90;;;;;;5064189;28;20065;-81
2023/03/22 08:46:44;;;;;;;11.00;3.70;;;9.70;99.90;;;;;;5080523;28;20437;-80
2023/03/22 08:49:10;;;;;;;15.55;4.32;;;9.70;99.90;;;;;;5114112;28;20040;-88
2023/03/22 08:51:36;;;;;;;11.90;3.88;;;9.70;99.90;;;;;;5063041;28;20389;-91
2023/03/22 08:54:03;;;;;;;13.43;3.80;;;9.70;99.90;;;;;;5111827;28;20079;-81
2023/03/22 08:56:31;;;;;;;10.00;4.05;;;9.60;99.90;;;;;;5096671;28;20050;-85
2023/03/22 08:58:57;;;;;;;11.57;4.10;;;9.70;99.90;;;;;;5079915;28;20059;-79
2023/03/22 09:01:24;;;;;;;10.18;3.97;;;9.60;99.90;;;;;;5080849;28;20048;-83
2023/03/22 09:03:52;;;;;;;9.15;3.78;;;9.60;99.90;;;;;;5114557;28;20047;-87
2023/03/22 09:06:21;;;;;;;12.50;4.13;;;9.60;99.90;;;;;;5063246;28;20531;-88
2023/03/22 09:08:50;;;;;;;8.32;3.95;;;9.60;99.90;;;;;;5113784;28;20047;-78
2023/03/22 09:11:19;;;;;;;9.77;3.78;;;9.60;99.90;;;;;;5114367;28;20049;-84
2023/03/22 09:16:21;;;;;;;15.75;4.20;;;9.60;99.90;;;;;;5431043;23;22426;-73
2023/03/22 09:18:46;;;;;;;8.07;3.88;;;9.60;99.90;;;;;;4982030;28;20042;-78
2023/03/22 09:21:12;;;;;;;9.20;3.45;;;9.60;99.90;;;;;;4994333;28;20080;-76
2023/03/22 09:23:39;;;;;;;10.57;3.70;;;9.50;99.90;;;;;;5012884;28;20510;-77
2023/03/22 09:26:08;;;;;;;9.65;3.75;;;9.50;99.90;;;;;;5010991;28;20088;-79
2023/03/22 09:28:34;;;;;;;9.38;4.05;;;9.50;99.90;;;;;;4991808;28;20042;-76
2023/03/22 09:31:08;;;;;;;8.77;3.55;;;9.50;99.90;;;;;;4996111;28;20068;-76
2023/03/22 09:33:35;;;;;;;14.02;3.83;;;9.50;99.90;;;;;;5006516;28;20045;-76
2023/03/22 09:36:01;;;;;;;11.52;4.00;;;9.50;99.90;;;;;;5010799;28;20060;-76
2023/03/22 09:38:31;;;;;;;11.93;4.05;;;9.50;99.90;;;;;;5011455;28;20037;-76
2023/03/22 09:41:06;;;;;;;10.90;4.10;;;9.50;99.90;;;;;;5014553;28;20453;-77
2023/03/22 09:43:42;;;;;;;10.27;4.20;;;9.50;99.90;;;;;;4995912;28;20084;-76
2023/03/22 09:46:14;;;;;;;13.77;3.75;;;9.40;99.90;;;;;;5018186;28;20080;-72
2023/03/22 09:48:45;;;;;;;12.32;4.20;;;9.50;99.90;;;;;;5023447;28;20053;-77
2023/03/22 09:51:36;;;;;;;10.30;3.65;;;9.40;99.90;;;;;;5019182;28;20041;-79
2023/03/22 09:54:01;;;;;;;10.68;3.78;;;9.40;99.90;;;;;;5018399;28;20671;-77
2023/03/22 09:56:30;;;;;;;8.50;3.45;;;9.50;99.90;;;;;;5019122;28;20073;-77
2023/03/22 09:59:23;;;;;;;11.35;4.22;;;9.50;99.90;;;;;;5020398;28;20811;-78
2023/03/22 10:01:55;;;;;;;7.70;3.15;;;9.50;99.90;;;;;;5023868;28;20113;-79
2023/03/22 10:04:42;;;;;;;8.57;3.28;;;9.50;99.90;;;;;;5020388;28;20062;-79
2023/03/22 10:07:27;;;;;;;7.55;3.20;;;9.50;99.90;;;;;;5003627;28;20045;-81
2023/03/22 10:10:09;;;;;;;12.77;3.72;;;9.50;99.90;;;;;;5020904;28;20135;-81
2023/03/22 10:13:06;;;;;;;13.40;3.67;;;9.50;99.90;;;;;;5020926;28;20176;-82
2023/03/22 10:15:39;;;;;;;10.05;3.95;;;9.50;99.90;;;;;;5003909;28;20061;-80
2023/03/22 10:18:10;;;;;;;11.25;3.67;;;9.50;99.90;;;;;;5005058;28;20049;-81
2023/03/22 10:20:48;;;;;;;6.88;3.80;;;9.50;99.90;;;;;;5024256;28;20057;-81
2023/03/22 10:23:18;;;;;;;7.60;3.45;;;9.60;99.90;;;;;;5018348;28;20041;-80
2023/03/22 10:25:46;;;;;;;9.32;3.95;;;9.60;99.90;;;;;;5019925;28;20045;-81
2023/03/22 10:28:22;;;;;;;13.98;4.53;;;9.40;99.90;;;;;;5009806;28;20088;-82
2023/03/22 10:30:54;;;;;;;9.68;3.63;;;9.60;99.90;;;;;;5023713;28;20081;-82
2023/03/22 10:33:52;;;;;;;9.57;3.70;;;9.60;99.90;;;;;;5020913;28;20049;-80
2023/03/22 10:36:22;;;;;;;8.82;3.65;;;9.60;99.90;;;;;;5010710;28;20088;-80
2023/03/22 10:38:55;;;;;;;8.05;3.83;;;9.60;99.90;;;;;;5019249;28;20072;-81
2023/03/22 10:41:24;;;;;;;11.55;4.00;;;9.70;99.90;;;;;;5018104;28;20096;-79
2023/03/22 10:43:57;;;;;;;8.80;3.33;;;9.70;99.90;;;;;;5000326;28;20168;-79
2023/03/22 10:46:32;;;;;;;10.27;3.90;;;9.70;99.90;;;;;;5004851;28;20042;-79
2023/03/22 10:49:00;;;;;;;7.68;3.53;;;9.70;99.90;;;;;;4997453;28;20072;-77
2023/03/22 10:51:45;;;;;;;13.02;3.80;;;9.70;99.90;;;;;;4985092;28;20064;-77
2023/03/22 10:54:17;;;;;;;10.70;4.10;;;9.70;99.90;;;;;;5017131;28;20499;-78
2023/03/22 10:56:43;;;;;;;8.95;3.83;;;9.70;99.90;;;;;;5012190;28;20111;-77
2023/03/22 10:59:52;;;;;;;4.93;3.65;;;9.80;99.90;;;;;;5002182;28;20045;-80
2023/03/22 11:02:23;;;;;;;12.68;4.00;;;9.80;99.90;;;;;;5014326;28;20057;-83
2023/03/22 11:04:58;;;;;;;10.00;4.20;;;9.80;99.90;;;;;;5018422;28;20127;-80
2023/03/22 11:07:36;;;;;;;7.93;4.03;;;9.80;99.90;;;;;;5014093;28;20216;-82
2023/03/22 11:10:08;;;;;;;10.25;4.07;;;9.90;99.90;;;;;;4999524;28;20049;-82
2023/03/22 11:12:47;;;;;;;8.80;4.07;;;9.90;99.90;;;;;;4997422;28;20046;-81
2023/03/22 11:15:27;;;;;;;12.27;4.05;;;9.90;99.90;;;;;;5013555;28;20049;-83
2023/03/22 11:18:09;;;;;;;9.63;4.22;;;9.90;99.90;;;;;;5013230;28;20103;-82
2023/03/22 11:20:38;;;;;;;8.73;4.30;;;9.90;99.90;;;;;;5013659;28;20053;-81
2023/03/22 11:23:05;;;;;;;8.73;4.38;;;9.90;99.90;;;;;;4987459;28;20059;-83
2023/03/22 11:25:36;;;;;;;9.88;4.35;;;9.90;99.90;;;;;;5001189;28;20069;-83
2023/03/22 11:28:15;;;;;;;9.05;4.00;;;10.00;99.90;;;;;;5000275;28;20060;-83
2023/03/22 11:31:07;;;;;;;10.18;4.40;;;10.00;99.90;;;;;;5016151;28;20076;-83
2023/03/22 11:33:34;;;;;;;8.45;3.67;;;8.70;99.90;;;;;;5001746;28;20049;-84
2023/03/22 11:36:04;;;;;;;8.80;3.63;;;10.00;99.90;;;;;;5003346;28;20396;-83
2023/03/22 11:38:55;;;;;;;8.05;3.80;;;9.90;99.90;;;;;;5014848;28;20231;-84
2023/03/22 11:41:25;;;;;;;9.45;3.63;;;9.90;99.90;;;;;;5016662;28;20057;-84
2023/03/22 11:43:54;;;;;;;8.18;3.58;;;9.90;99.90;;;;;;5000137;28;20280;-74
2023/03/22 11:46:22;;;;;;;10.75;4.03;;;9.80;99.90;;;;;;5017457;28;20076;-74
2023/03/22 11:48:50;;;;;;;10.32;3.47;;;9.80;99.90;;;;;;5012603;28;20045;-80
2023/03/22 11:51:26;;;;;;;7.57;3.38;;;9.80;99.90;;;;;;5002721;28;20057;-81
2023/03/22 11:53:59;;;;;;;7.57;4.15;;;9.80;99.90;;;;;;5012148;28;20056;-80
2023/03/22 11:56:29;;;;;;;9.75;3.00;;;9.80;99.90;;;;;;5009984;28;20078;-79
2023/03/22 11:59:02;;;;;;;7.15;3.22;;;9.80;99.90;;;;;;5002197;28;20076;-79
2023/03/22 12:01:47;;;;;;;9.15;3.20;;;9.90;99.90;;;;;;5003385;28;20380;-77
2023/03/22 12:04:21;;;;;;;9.10;3.30;;;10.00;99.90;;;;;;5017873;28;20053;-78
2023/03/22 12:06:50;;;;;;;7.95;3.20;;;9.90;99.90;;;;;;4998062;28;20045;-78
2023/03/22 12:09:36;;;;;;;11.95;3.50;;;10.00;99.90;;;;;;5006171;28;20133;-76
2023/03/22 12:12:05;;;;;;;8.77;3.25;;;10.00;99.90;;;;;;5015600;28;20065;-76
2023/03/22 12:14:54;;;;;;;8.57;3.33;;;10.00;99.90;;;;;;5002968;28;20049;-76
2023/03/22 12:17:32;;;;;;;9.88;3.58;;;10.00;99.90;;;;;;5014456;28;20041;-75
2023/03/22 12:20:19;;;;;;;10.38;3.03;;;10.10;99.90;;;;;;5015270;28;20046;-76
2023/03/22 12:22:51;;;;;;;11.60;3.30;;;10.10;99.90;;;;;;5006359;28;20049;-76
2023/03/22 12:25:31;;;;;;;17.15;4.03;;;10.10;99.90;;;;;;5015831;28;20064;-77
2023/03/22 12:28:13;;;;;;;12.73;3.92;;;10.10;99.90;;;;;;5017356;28;20060;-76
2023/03/22 12:30:45;;;;;;;11.63;3.33;;;10.10;99.90;;;;;;4997720;28;20049;-76
2023/03/22 12:33:26;;;;;;;10.68;3.72;;;10.10;99.90;;;;;;5027113;28;20057;-77
2023/03/22 12:36:00;;;;;;;12.35;3.50;;;10.10;99.90;;;;;;5010431;28;20106;-77
2023/03/22 12:38:48;;;;;;;12.85;3.47;;;10.10;99.90;;;;;;5014742;28;20158;-77
2023/03/22 12:41:26;;;;;;;11.60;3.35;;;10.10;99.90;;;;;;5023416;28;20103;-76
2023/03/22 12:43:57;;;;;;;7.97;3.83;;;10.10;99.90;;;;;;5014900;28;20057;-76
2023/03/22 12:46:32;;;;;;;11.73;4.43;;;10.20;99.90;;;;;;5016677;28;20111;-76
2023/03/22 12:49:20;;;;;;;11.70;3.85;;;10.10;99.90;;;;;;5014264;28;20111;-77
2023/03/22 12:51:50;;;;;;;10.98;3.40;;;10.10;99.90;;;;;;5003507;28;20050;-76
2023/03/22 12:54:19;;;;;;;11.48;3.90;;;10.10;99.90;;;;;;5015088;28;21592;-76
2023/03/22 12:56:46;;;;;;;13.18;3.80;;;10.10;99.90;;;;;;5003784;28;20053;-74
2023/03/22 12:59:24;;;;;;;10.75;3.60;;;10.00;99.90;;;;;;4984533;28;20052;-75
2023/03/22 13:02:15;;;;;;;10.23;3.50;;;10.10;99.90;;;;;;5015134;28;20404;-77
2023/03/22 13:04:43;;;;;;;12.98;3.95;;;10.10;99.90;;;;;;5016097;28;20788;-77
2023/03/22 13:07:13;;;;;;;14.18;4.35;;;10.10;99.90;;;;;;5004450;28;20057;-77
2023/03/22 13:09:47;;;;;;;9.80;4.72;;;10.10;99.90;;;;;;5015701;28;20054;-77
2023/03/22 13:12:16;;;;;;;14.18;4.25;;;10.10;99.90;;;;;;5016999;28;20468;-77